createdAt,value
2022-09-06T00:04:20.752Z,9.10
2022-09-06T00:06:48.096Z,9.10
2022-09-06T00:09:15.072Z,9.10
2022-09-06T00:11:42.130Z,9.10
2022-09-06T00:14:09.083Z,9.10
2022-09-06T00:16:36.212Z,9.00
2022-09-06T00:19:03.271Z,9.00
2022-09-06T00:21:31.337Z,8.90
2022-09-06T00:23:58.433Z,8.90
2022-09-06T00:26:25.664Z,8.90
2022-09-06T00:31:29.127Z,8.90
2022-09-06T00:33:56.257Z,8.90
2022-09-06T00:36:24.262Z,8.90
2022-09-06T00:38:51.323Z,8.90
2022-09-06T00:41:18.350Z,8.90
2022-09-06T00:43:45.445Z,8.90
2022-09-06T00:46:19.636Z,8.90
2022-09-06T00:48:49.867Z,8.80
2022-09-06T00:51:18.709Z,8.80
2022-09-06T00:53:45.883Z,8.80
2022-09-06T00:56:13.787Z,8.80
2022-09-06T00:58:41.115Z,8.90
2022-09-06T01:01:11.302Z,8.90
2022-09-06T01:03:38.969Z,8.90
2022-09-06T01:06:15.061Z,8.80
2022-09-06T01:08:52.952Z,8.80
2022-09-06T01:11:28.044Z,8.80
2022-09-06T01:14:28.161Z,8.70
2022-09-06T01:37:38.920Z,8.70
2022-09-06T01:40:06.682Z,8.60
2022-09-06T01:42:35.082Z,8.60
2022-09-06T01:45:09.397Z,8.60
2022-09-06T01:47:48.318Z,8.60
2022-09-06T01:50:59.931Z,8.50
2022-09-06T01:53:33.001Z,8.50
2022-09-06T01:56:22.778Z,8.40
2022-09-06T01:59:10.559Z,8.40
2022-09-06T02:02:08.644Z,8.40
2022-09-06T02:04:45.928Z,8.30
2022-09-06T02:07:25.323Z,8.40
2022-09-06T02:10:22.601Z,8.30
2022-09-06T02:12:54.358Z,8.30
2022-09-06T02:15:32.518Z,8.30
2022-09-06T02:18:29.431Z,8.30
2022-09-06T02:20:59.800Z,8.20
2022-09-06T02:23:32.128Z,8.20
2022-09-06T02:26:19.463Z,8.20
2022-09-06T02:28:46.771Z,8.20
2022-09-06T02:31:20.616Z,8.10
2022-09-06T02:33:48.732Z,8.10
2022-09-06T02:36:16.389Z,8.10
2022-09-06T02:38:45.887Z,8.10
2022-09-06T02:41:15.939Z,8.00
2022-09-06T02:43:43.770Z,8.00
2022-09-06T02:46:10.884Z,8.00
2022-09-06T02:48:38.094Z,8.00
2022-09-06T02:51:06.916Z,8.00
2022-09-06T02:53:34.375Z,7.90
2022-09-06T02:56:02.495Z,7.90
2022-09-06T02:58:29.721Z,7.90
2022-09-06T03:00:56.894Z,7.90
2022-09-06T03:03:25.177Z,8.00
2022-09-06T03:05:54.129Z,8.10
2022-09-06T03:08:23.567Z,8.10
2022-09-06T03:10:55.198Z,8.10
2022-09-06T03:13:23.844Z,8.10
2022-09-06T03:15:56.883Z,8.10
2022-09-06T03:18:25.425Z,8.20
2022-09-06T03:20:56.845Z,8.20
2022-09-06T03:23:26.117Z,8.20
2022-09-06T03:25:53.626Z,8.20
2022-09-06T03:28:21.993Z,8.20
2022-09-06T03:30:51.212Z,8.20
2022-09-06T03:33:19.276Z,8.20
2022-09-06T03:35:52.255Z,8.20
2022-09-06T03:38:19.916Z,8.20
2022-09-06T03:40:48.109Z,8.10
2022-09-06T03:43:16.091Z,8.10
2022-09-06T03:45:48.916Z,8.10
2022-09-06T03:48:17.385Z,8.00
2022-09-06T03:50:54.459Z,8.10
2022-09-06T03:53:23.012Z,8.00
2022-09-06T03:55:52.718Z,8.00
2022-09-06T03:58:21.784Z,8.00
2022-09-06T04:00:50.070Z,8.00
2022-09-06T04:03:24.408Z,8.00
2022-09-06T04:06:14.203Z,8.00
2022-09-06T04:08:41.315Z,8.00
2022-09-06T04:11:08.488Z,7.90
2022-09-06T04:13:36.678Z,7.90
2022-09-06T04:16:09.402Z,7.90
2022-09-06T04:18:37.195Z,7.90
2022-09-06T04:21:04.441Z,7.90
2022-09-06T04:23:34.331Z,7.90
2022-09-06T04:26:05.239Z,7.90
2022-09-06T04:28:32.702Z,7.90
2022-09-06T04:31:05.409Z,8.00
2022-09-06T04:33:35.497Z,8.10
2022-09-06T04:36:04.909Z,8.10
2022-09-06T04:38:36.280Z,8.20
2022-09-06T04:41:03.936Z,8.20
2022-09-06T04:43:30.919Z,8.30
2022-09-06T04:46:06.853Z,8.30
2022-09-06T04:48:34.169Z,8.30
2022-09-06T04:51:01.133Z,8.40
2022-09-06T04:53:28.216Z,8.30
2022-09-06T04:55:58.252Z,8.30
2022-09-06T04:58:26.610Z,8.30
2022-09-06T06:04:03.176Z,10.20
2022-09-06T06:06:33.079Z,10.20
2022-09-06T06:09:00.822Z,10.20
2022-09-06T06:11:28.423Z,10.30
2022-09-06T06:13:55.505Z,10.30
2022-09-06T06:19:19.781Z,10.40
2022-09-06T06:46:05.991Z,10.60
2022-09-06T06:48:41.930Z,10.60
2022-09-06T07:45:36.385Z,12.80
2022-09-06T07:48:04.058Z,12.80
2022-09-06T07:50:48.454Z,12.90
2022-09-06T07:53:24.556Z,13.10
2022-09-06T07:55:57.021Z,13.30
2022-09-06T07:58:24.325Z,13.30
2022-09-06T08:00:53.001Z,13.30
2022-09-06T08:03:20.319Z,13.40
2022-09-06T08:11:23.285Z,13.70
2022-09-06T08:13:51.808Z,13.80
2022-09-06T08:16:20.345Z,13.90
2022-09-06T08:18:55.642Z,14.00
2022-09-06T08:21:24.427Z,14.10
2022-09-06T08:23:53.825Z,14.00
2022-09-06T08:26:22.728Z,14.10
2022-09-06T08:29:00.847Z,14.30
2022-09-06T08:31:30.639Z,14.50
2022-09-06T08:33:59.427Z,14.60
2022-09-06T08:36:29.781Z,14.60
2022-09-06T08:39:00.234Z,14.60
2022-09-06T08:41:29.722Z,14.60
2022-09-06T08:47:00.559Z,14.60
2022-09-06T08:49:31.839Z,14.50
2022-09-06T08:52:19.893Z,14.50
2022-09-06T08:55:08.263Z,14.50
2022-09-06T08:57:40.318Z,14.60
2022-09-06T09:00:13.581Z,14.70
2022-09-06T09:03:07.650Z,14.70
2022-09-06T09:05:37.732Z,14.70
2022-09-06T09:08:24.358Z,14.70
2022-09-06T09:11:01.161Z,14.80
2022-09-06T09:13:47.331Z,14.90
2022-09-06T09:16:15.313Z,14.80
2022-09-06T09:18:46.842Z,14.70
2022-09-06T09:21:15.909Z,14.70
2022-09-06T09:23:44.446Z,14.60
2022-09-06T09:26:15.284Z,14.60
2022-09-06T09:29:05.226Z,14.70
2022-09-06T09:31:36.347Z,14.60
2022-09-06T09:34:05.259Z,14.60
2022-09-06T09:36:37.439Z,14.60
2022-09-06T09:39:34.022Z,14.70
2022-09-06T09:42:01.548Z,14.70
2022-09-06T09:44:30.222Z,14.80
2022-09-06T09:46:57.493Z,15.10
2022-09-06T09:49:25.290Z,15.10
2022-09-06T09:52:11.597Z,15.20
2022-09-06T09:54:44.676Z,15.20
2022-09-06T09:57:17.612Z,15.20
2022-09-06T09:59:47.836Z,15.20
2022-09-06T10:02:39.107Z,15.30
2022-09-06T10:05:06.712Z,15.40
2022-09-06T10:07:35.228Z,15.30
2022-09-06T10:10:11.467Z,15.30
2022-09-06T10:12:41.187Z,15.40
2022-09-06T10:15:32.432Z,15.10
2022-09-06T10:18:02.380Z,15.00
2022-09-06T10:20:46.364Z,15.10
2022-09-06T10:26:38.696Z,15.20
2022-09-06T10:29:10.302Z,15.30
2022-09-06T10:31:53.845Z,15.40
2022-09-06T10:34:41.723Z,15.40
2022-09-06T10:37:39.444Z,15.40
2022-09-06T11:47:46.222Z,15.50
2022-09-06T11:55:48.312Z,15.60
2022-09-06T12:01:34.784Z,15.70
2022-09-06T12:07:10.965Z,15.80
2022-09-06T12:09:40.992Z,15.70
2022-09-06T12:12:11.406Z,15.70
2022-09-06T12:14:48.653Z,15.60
2022-09-06T12:17:16.874Z,15.60
2022-09-06T12:20:07.549Z,15.60
2022-09-06T12:22:36.117Z,15.60
2022-09-06T12:25:21.436Z,15.60
2022-09-06T12:27:54.425Z,15.60
2022-09-06T12:30:51.169Z,15.60
2022-09-06T12:33:25.547Z,15.70
2022-09-06T12:38:28.690Z,15.60
2022-09-06T12:40:59.263Z,15.50
2022-09-06T12:43:27.155Z,15.40
2022-09-06T12:45:54.271Z,15.40
2022-09-06T12:48:33.755Z,15.40
2022-09-06T12:51:25.883Z,15.30
2022-09-06T12:53:59.925Z,15.30
2022-09-06T12:56:29.765Z,15.30
2022-09-06T12:59:17.093Z,15.40
2022-09-06T13:01:52.531Z,15.40
2022-09-06T13:04:40.161Z,15.30
2022-09-06T13:07:13.003Z,15.20
2022-09-06T13:09:44.045Z,15.20
2022-09-06T13:12:32.071Z,15.20
